Time;durP1;ratioP1;P1;durP2;ratioP2;P2;SDS_P1;SDS_P2;PMS_P1;PMS_P2;Temp;Humidity;BMP_temperature;BMP_pressure;BME280_temperature;BME280_humidity;BME280_pressure;Samples;Min_cycle;Max_cycle;Signal;HPM_P1;HPM_P2
2023/01/03 00:01:39;;;;;;;6.63;1.37;;;;;;;10.24;91.70;101668.94;5013028;28;20459;-67
2023/01/03 00:04:06;;;;;;;4.70;1.23;;;;;;;10.27;91.22;101671.09;5013004;28;20446;-67
2023/01/03 00:06:34;;;;;;;4.73;1.10;;;;;;;10.23;91.94;101674.59;5013025;28;20450;-67
2023/01/03 00:09:02;;;;;;;4.80;1.47;;;;;;;10.29;91.66;101676.25;5012669;28;20558;-68
2023/01/03 00:14:19;;;;;;;6.13;1.80;;;;;;;10.27;91.70;101676.53;5012657;28;20458;-67
2023/01/03 00:16:47;;;;;;;5.10;1.33;;;;;;;10.34;91.16;101678.94;5013940;28;20444;-68
2023/01/03 00:19:14;;;;;;;5.10;1.37;;;;;;;10.30;91.93;101684.09;5016366;28;20463;-68
2023/01/03 00:21:42;;;;;;;10.60;1.83;;;;;;;10.33;91.25;101674.63;5016417;28;20468;-68
2023/01/03 00:24:09;;;;;;;6.30;1.47;;;;;;;10.33;91.50;101683.53;5016372;28;20451;-68
2023/01/03 00:26:39;;;;;;;7.43;1.53;;;;;;;10.31;91.89;101683.03;5016340;28;20543;-67
2023/01/03 00:29:06;;;;;;;14.10;2.03;;;;;;;10.39;90.57;101691.66;5016182;28;20468;-68
2023/01/03 00:31:32;;;;;;;4.93;1.20;;;;;;;10.37;90.20;101691.94;5016239;28;20443;-67
2023/01/03 00:33:59;;;;;;;5.97;1.57;;;;;;;10.36;90.43;101695.75;5016137;28;20479;-67
2023/01/03 00:36:25;;;;;;;6.43;1.50;;;;;;;10.40;90.00;101696.00;5016158;28;20482;-67
2023/01/03 00:38:52;;;;;;;6.80;1.53;;;;;;;10.30;90.56;101699.53;5016039;28;20482;-67
2023/01/03 00:41:19;;;;;;;4.70;1.37;;;;;;;10.32;89.84;101706.31;5016062;28;20440;-68
2023/01/03 00:43:49;;;;;;;5.63;1.37;;;;;;;10.32;89.89;101705.50;5016012;28;20446;-67
2023/01/03 00:46:20;;;;;;;5.80;1.30;;;;;;;10.35;89.66;101715.75;5015960;28;20831;-68
2023/01/03 00:48:46;;;;;;;6.80;1.10;;;;;;;10.32;89.39;101724.44;5015816;28;20474;-67
2023/01/03 00:51:15;;;;;;;4.60;1.20;;;;;;;10.24;89.39;101720.38;5015878;28;20446;-67
2023/01/03 00:53:45;;;;;;;4.80;1.17;;;;;;;10.25;85.64;101723.91;5015787;28;20480;-67
2023/01/03 00:56:17;;;;;;;5.67;1.47;;;;;;;10.16;84.93;101722.78;5015474;28;21005;-68
2023/01/03 00:58:44;;;;;;;5.43;1.60;;;;;;;10.07;84.49;101736.03;5015737;28;20439;-67
2023/01/03 01:01:15;;;;;;;5.10;1.60;;;;;;;10.03;85.06;101749.28;5015587;28;20963;-68
2023/01/03 01:03:44;;;;;;;4.90;1.30;;;;;;;9.95;85.35;101752.53;5015387;28;20424;-67
2023/01/03 01:06:14;;;;;;;8.53;1.07;;;;;;;9.95;85.06;101746.31;5015576;28;20526;-67
2023/01/03 01:08:41;;;;;;;5.80;1.37;;;;;;;9.89;85.45;101758.19;5015066;28;20837;-68
2023/01/03 01:11:09;;;;;;;5.13;1.37;;;;;;;9.86;85.71;101759.53;5015533;28;20486;-68
2023/01/03 01:13:36;;;;;;;4.73;1.00;;;;;;;9.85;85.72;101768.75;5015097;28;20486;-67
2023/01/03 01:16:04;;;;;;;4.60;1.30;;;;;;;9.84;85.76;101765.22;5015103;28;20450;-67
2023/01/03 01:18:32;;;;;;;9.73;1.00;;;;;;;9.78;86.35;101774.41;5015289;28;20522;-67
2023/01/03 01:20:58;;;;;;;9.97;1.07;;;;;;;9.73;86.89;101784.41;5014987;28;20530;-67
2023/01/03 01:23:25;;;;;;;4.90;1.40;;;;;;;9.66;87.50;101790.06;5015232;28;20528;-68
2023/01/03 01:25:52;;;;;;;5.30;0.93;;;;;;;9.58;87.57;101791.38;5014918;28;20444;-68
2023/01/03 01:28:18;;;;;;;4.50;0.80;;;;;;;9.60;87.65;101797.31;5014860;28;20448;-67
2023/01/03 01:30:45;;;;;;;7.30;1.30;;;;;;;9.61;87.79;101806.28;5015074;28;20518;-68
2023/01/03 01:33:11;;;;;;;6.10;1.30;;;;;;;9.57;87.45;101816.00;5015031;28;20490;-68
2023/01/03 01:35:39;;;;;;;4.33;0.97;;;;;;;9.54;87.83;101821.94;5015052;28;20450;-68
2023/01/03 01:38:06;;;;;;;4.70;1.00;;;;;;;9.51;88.52;101823.25;5015057;28;20444;-67
2023/01/03 01:40:32;;;;;;;6.03;1.23;;;;;;;9.52;88.39;101826.81;5014859;28;20463;-68
2023/01/03 01:45:55;;;;;;;6.27;1.47;;;;;;;9.52;89.04;101837.63;5014676;28;20556;-68
2023/01/03 01:48:22;;;;;;;5.07;1.03;;;;;;;9.51;88.79;101836.78;5014740;28;20448;-67
2023/01/03 01:50:55;;;;;;;5.80;1.43;;;;;;;9.48;89.54;101837.31;5014678;28;20547;-68
2023/01/03 01:53:25;;;;;;;4.50;0.90;;;;;;;9.49;89.41;101843.53;5014637;28;20476;-67
2023/01/03 01:55:55;;;;;;;4.33;0.87;;;;;;;9.46;89.24;101842.16;5014667;28;20472;-68
2023/01/03 01:58:26;;;;;;;4.53;1.00;;;;;;;9.43;88.91;101831.06;5014581;28;20520;-68
2023/01/03 02:00:53;;;;;;;6.90;1.17;;;;;;;9.31;89.67;101832.09;5014645;28;20424;-68
2023/01/03 02:03:19;;;;;;;5.50;0.93;;;;;;;9.28;89.55;101843.41;5014526;28;20527;-68
2023/01/03 02:05:51;;;;;;;5.17;1.27;;;;;;;9.19;90.13;101838.75;5014778;28;20494;-67
2023/01/03 02:08:19;;;;;;;5.27;1.23;;;;;;;9.19;89.62;101844.16;5014252;28;20475;-68
2023/01/03 02:10:58;;;;;;;5.07;1.50;;;;;;;9.13;89.69;101842.53;5014374;28;20468;-68
2023/01/03 02:13:33;;;;;;;6.53;1.43;;;;;;;9.09;89.68;101847.63;5014289;28;20468;-67
2023/01/03 02:16:22;;;;;;;6.10;1.00;;;;;;;9.01;89.61;101853.50;5014325;28;20434;-67
2023/01/03 02:19:00;;;;;;;4.30;0.90;;;;;;;8.93;90.30;101852.09;5013926;28;20997;-68
2023/01/03 02:22:02;;;;;;;5.40;0.90;;;;;;;8.89;89.03;101858.28;5013881;28;20439;-66
2023/01/03 02:25:03;;;;;;;4.50;1.03;;;;;;;8.81;88.82;101862.28;4994916;28;20536;-68
2023/01/03 02:27:55;;;;;;;4.00;0.80;;;;;;;8.75;88.25;101866.00;5013846;28;20944;-68
2023/01/03 02:30:39;;;;;;;4.73;1.23;;;;;;;8.67;87.02;101861.88;5013972;28;20470;-67
2023/01/03 02:33:18;;;;;;;4.97;1.00;;;;;;;8.61;86.87;101875.59;5013994;28;20428;-67
2023/01/03 02:35:53;;;;;;;4.47;1.00;;;;;;;8.51;87.12;101882.53;5014002;28;20439;-67
2023/01/03 02:38:29;;;;;;;3.90;0.60;;;;;;;8.41;87.79;101874.34;5013623;28;20905;-67
2023/01/03 02:41:04;;;;;;;6.80;1.40;;;;;;;8.39;87.44;101875.66;5013541;28;20428;-67
2023/01/03 02:43:41;;;;;;;4.57;1.07;;;;;;;8.21;88.15;101872.19;5013609;28;20793;-67
2023/01/03 02:46:16;;;;;;;4.87;1.10;;;;;;;8.27;86.52;101876.56;5013516;28;20902;-67
2023/01/03 02:48:51;;;;;;;4.33;1.10;;;;;;;8.27;85.30;101881.97;5013759;28;20424;-67
2023/01/03 02:51:23;;;;;;;4.10;0.73;;;;;;;8.20;84.79;101889.47;5013442;28;20864;-67
2023/01/03 02:53:51;;;;;;;5.50;1.20;;;;;;;8.19;84.63;101890.53;5013492;28;20475;-67
2023/01/03 02:56:22;;;;;;;4.33;0.80;;;;;;;8.11;84.93;101896.38;5013660;28;20479;-68
2023/01/03 02:58:54;;;;;;;4.57;0.90;;;;;;;8.08;83.50;101894.97;5013651;28;20478;-66
2023/01/03 03:01:23;;;;;;;4.67;1.20;;;;;;;8.02;82.83;101905.97;5013673;28;20440;-67
2023/01/03 03:03:50;;;;;;;7.30;1.23;;;;;;;8.02;82.37;101896.00;5013337;28;20895;-67
2023/01/03 03:06:23;;;;;;;4.77;1.37;;;;;;;7.99;82.24;101909.16;5013587;28;20480;-67
2023/01/03 03:08:50;;;;;;;9.90;1.30;;;;;;;7.93;82.35;101907.47;5013321;28;20476;-67
2023/01/03 03:14:07;;;;;;;5.17;1.57;;;;;;;7.87;82.38;101914.69;5013331;28;20514;-67
2023/01/03 03:16:47;;;;;;;6.27;1.07;;;;;;;7.75;82.76;101916.69;5013217;28;20520;-67
2023/01/03 03:24:52;;;;;;;8.00;1.40;;;;;;;7.72;83.17;101917.19;5013046;28;20579;-67
2023/01/03 03:30:10;;;;;;;4.47;1.17;;;;;;;7.73;83.56;101918.81;5002087;28;20456;-67
2023/01/03 03:32:39;;;;;;;8.30;1.47;;;;;;;7.73;83.41;101913.41;5013374;28;20610;-67
2023/01/03 03:35:11;;;;;;;4.60;1.10;;;;;;;7.69;83.20;101918.47;5013292;28;20494;-67
2023/01/03 03:37:40;;;;;;;4.40;1.07;;;;;;;7.64;83.57;101918.41;5013030;28;20796;-67
2023/01/03 03:45:46;;;;;;;5.20;1.07;;;;;;;7.42;85.19;101928.34;5029801;22;20513;-80
2023/01/03 03:48:21;;;;;;;4.50;1.17;;;;;;;7.42;85.57;101931.84;5033823;28;20487;-80
2023/01/03 03:50:52;;;;;;;4.60;1.00;;;;;;;7.40;85.50;101935.88;5033735;28;20517;-80
2023/01/03 03:53:23;;;;;;;6.00;1.27;;;;;;;7.39;86.88;101945.00;5037209;28;20470;-80
2023/01/03 03:55:54;;;;;;;4.87;1.07;;;;;;;7.37;86.82;101936.34;5076253;22;20571;-68
2023/01/03 03:58:23;;;;;;;4.30;0.80;;;;;;;7.38;87.25;101930.69;5056698;28;20466;-69
2023/01/03 04:00:52;;;;;;;6.70;1.10;;;;;;;7.34;87.21;101935.75;5057117;28;20445;-69
2023/01/03 04:03:21;;;;;;;4.87;1.30;;;;;;;7.27;88.31;101945.91;5056535;28;20999;-69
2023/01/03 04:05:53;;;;;;;8.80;1.30;;;;;;;7.32;88.09;101961.34;5056676;28;20457;-68
2023/01/03 04:08:20;;;;;;;6.23;1.20;;;;;;;7.33;87.46;101950.31;5056387;28;20907;-68
2023/01/03 04:10:46;;;;;;;7.80;1.20;;;;;;;7.22;88.11;101948.53;5056816;28;20482;-69
2023/01/03 04:13:13;;;;;;;5.10;1.47;;;;;;;7.21;88.43;101965.72;5056571;28;20485;-68
2023/01/03 04:15:39;;;;;;;6.83;1.40;;;;;;;7.21;88.76;101971.13;5056415;28;20525;-68
2023/01/03 04:18:06;;;;;;;12.90;1.37;;;;;;;7.18;88.82;101970.81;5056414;28;20482;-69
2023/01/03 04:20:34;;;;;;;4.83;1.20;;;;;;;7.19;88.84;101973.25;5056307;28;20492;-69
2023/01/03 04:23:00;;;;;;;5.00;1.20;;;;;;;7.24;88.46;101984.13;5056396;28;20456;-68
2023/01/03 04:25:27;;;;;;;12.47;1.40;;;;;;;7.20;88.19;101980.28;5056042;28;20807;-68
2023/01/03 04:27:54;;;;;;;5.73;1.07;;;;;;;7.17;88.14;101988.03;5056200;28;20477;-69
2023/01/03 04:30:21;;;;;;;4.77;1.00;;;;;;;7.15;88.63;101979.38;5056362;28;20492;-68
2023/01/03 04:32:47;;;;;;;5.37;1.40;;;;;;;7.13;88.63;101984.16;5056205;28;20448;-68
2023/01/03 04:35:14;;;;;;;5.53;1.40;;;;;;;7.10;89.21;101996.28;5056180;28;20492;-69
2023/01/03 04:37:42;;;;;;;5.00;0.87;;;;;;;7.07;89.18;101996.75;5056190;28;20453;-68
2023/01/03 04:40:10;;;;;;;4.30;1.10;;;;;;;7.08;88.94;101992.97;5056079;28;20896;-69
2023/01/03 04:45:21;;;;;;;4.87;1.70;;;;;;;6.99;88.94;101997.13;5055606;28;20442;-69
2023/01/03 04:47:47;;;;;;;4.93;1.40;;;;;;;6.96;89.29;101993.06;5055896;28;20818;-69
2023/01/03 04:50:14;;;;;;;4.80;1.20;;;;;;;6.92;89.62;102001.88;5055552;28;20470;-68
2023/01/03 04:52:42;;;;;;;6.37;1.80;;;;;;;6.90;89.60;102003.97;5055802;28;20438;-69
2023/01/03 04:55:09;;;;;;;4.83;1.27;;;;;;;6.92;89.48;102005.38;5055170;28;20849;-69
2023/01/03 04:57:36;;;;;;;4.57;1.37;;;;;;;6.88;89.27;102015.00;5055490;28;20965;-69
2023/01/03 05:00:03;;;;;;;5.83;1.70;;;;;;;6.88;89.08;102019.56;5055314;28;20481;-69
2023/01/03 05:02:30;;;;;;;5.17;1.20;;;;;;;6.82;89.46;102027.56;5055105;28;20446;-69
2023/01/03 05:04:56;;;;;;;5.57;1.60;;;;;;;6.79;89.59;102030.72;5055590;28;20441;-69
2023/01/03 05:07:23;;;;;;;7.73;1.47;;;;;;;6.78;89.95;102039.06;5055561;28;20434;-70
2023/01/03 05:09:51;;;;;;;7.83;1.47;;;;;;;6.72;90.05;102048.06;5055523;28;20439;-69
2023/01/03 05:12:17;;;;;;;6.50;1.30;;;;;;;6.67;90.25;102047.97;5055439;28;20449;-68
2023/01/03 05:14:44;;;;;;;7.83;1.17;;;;;;;6.61;90.95;102041.66;5055381;28;20628;-69
2023/01/03 05:17:11;;;;;;;5.07;1.13;;;;;;;6.61;91.37;102047.06;5055452;28;20449;-69
2023/01/03 05:25:48;;;;;;;4.97;1.30;;;;;;;6.56;91.84;102046.97;5055329;28;20440;-68
2023/01/03 05:27:56;;;;;;;15.87;1.70;;;;;;;6.44;92.32;102057.72;5055020;28;20432;-69
2023/01/03 05:30:23;;;;;;;4.50;0.90;;;;;;;6.41;92.92;102052.00;5055139;28;20454;-68
2023/01/03 05:32:49;;;;;;;6.03;1.53;;;;;;;6.38;93.05;102056.00;5055016;28;20470;-68
2023/01/03 05:35:16;;;;;;;5.07;1.40;;;;;;;6.38;93.13;102063.25;5054925;28;20482;-70
2023/01/03 05:37:42;;;;;;;13.73;1.33;;;;;;;6.30;93.50;102070.63;5055023;28;20446;-68
2023/01/03 05:40:11;;;;;;;6.30;1.33;;;;;;;6.32;93.96;102070.38;5055091;28;20434;-68
2023/01/03 05:42:37;;;;;;;5.50;1.37;;;;;;;6.27;94.32;102073.78;5055020;28;20473;-68
2023/01/03 05:45:05;;;;;;;7.63;1.93;;;;;;;6.27;94.79;102068.41;5054678;28;22079;-63
2023/01/03 05:47:31;;;;;;;7.53;1.57;;;;;;;6.29;94.79;102069.00;5054605;28;20526;-63
2023/01/03 05:49:58;;;;;;;5.60;1.57;;;;;;;6.27;95.05;102064.91;5054247;28;20944;-64
2023/01/03 05:52:24;;;;;;;5.97;2.00;;;;;;;6.25;95.91;102062.44;5054422;28;20525;-64
2023/01/03 05:54:51;;;;;;;6.23;1.60;;;;;;;6.32;95.77;102065.81;5054105;28;20484;-64
2023/01/03 05:57:19;;;;;;;6.57;1.83;;;;;;;6.37;95.40;102073.19;5054133;28;21007;-63
2023/01/03 05:59:45;;;;;;;5.57;1.80;;;;;;;6.38;94.86;102077.53;5054321;28;20442;-63
2023/01/03 06:02:12;;;;;;;5.10;1.60;;;;;;;6.36;94.77;102084.19;5054210;28;20442;-64
2023/01/03 06:04:39;;;;;;;5.87;1.80;;;;;;;6.35;94.93;102082.56;5054294;28;20437;-64
2023/01/03 06:07:05;;;;;;;7.17;1.70;;;;;;;6.38;94.88;102079.41;5053763;28;20541;-63
2023/01/03 06:09:32;;;;;;;5.30;1.47;;;;;;;6.37;95.05;102078.56;5054293;28;20442;-63
2023/01/03 06:11:58;;;;;;;5.80;1.40;;;;;;;6.39;94.20;102081.03;5053929;28;20485;-63
2023/01/03 06:14:26;;;;;;;5.13;1.37;;;;;;;6.34;94.12;102080.94;5053296;28;20488;-63
2023/01/03 06:19:37;;;;;;;7.47;1.50;;;;;;;6.26;94.80;102090.97;5053950;28;20540;-63
2023/01/03 06:22:03;;;;;;;6.00;1.70;;;;;;;6.26;94.68;102099.06;5053873;28;20438;-63
2023/01/03 06:24:30;;;;;;;5.03;1.30;;;;;;;6.28;94.70;102091.56;5053714;28;20438;-68
2023/01/03 06:26:56;;;;;;;6.07;2.00;;;;;;;6.26;94.86;102092.88;5053385;28;20473;-68
2023/01/03 06:29:23;;;;;;;9.97;1.60;;;;;;;6.22;95.19;102092.50;5053448;28;20525;-68
2023/01/03 06:31:51;;;;;;;7.30;1.47;;;;;;;6.25;94.91;102097.44;5053253;28;21040;-68
2023/01/03 06:34:17;;;;;;;5.33;1.70;;;;;;;6.18;95.16;102101.28;5053414;28;20529;-68
2023/01/03 06:36:44;;;;;;;5.20;1.60;;;;;;;6.17;95.25;102105.03;5053366;28;20459;-68
2023/01/03 06:39:11;;;;;;;5.17;1.37;;;;;;;6.15;95.71;102099.03;5053535;28;20474;-68
2023/01/03 06:41:37;;;;;;;5.33;1.53;;;;;;;6.12;96.16;102097.66;5053767;28;20470;-68
2023/01/03 06:44:04;;;;;;;6.47;2.00;;;;;;;6.09;96.12;102103.50;5053750;28;20453;-68
2023/01/03 06:54:55;;;;;;;6.73;2.03;;;;;;;6.09;96.40;102118.81;5028816;28;20474;-69
2023/01/03 06:57:22;;;;;;;8.50;2.20;;;;;;;6.07;96.57;102124.44;5053247;28;20477;-69
2023/01/03 06:59:48;;;;;;;9.00;1.60;;;;;;;6.06;96.59;102120.94;5053356;28;20442;-69
2023/01/03 07:02:15;;;;;;;11.63;2.07;;;;;;;6.07;96.54;102127.13;5053588;28;20517;-69
2023/01/03 07:04:43;;;;;;;5.03;1.77;;;;;;;6.02;96.23;102135.91;5053247;28;20481;-68
2023/01/03 07:07:09;;;;;;;9.13;1.97;;;;;;;5.94;95.71;102133.53;5053644;28;20446;-68
2023/01/03 07:09:36;;;;;;;6.13;1.70;;;;;;;5.97;95.79;102132.25;5053032;28;20477;-68
2023/01/03 07:13:57;;;;;;;9.53;1.60;;;;;;;5.98;95.71;102142.78;5053006;28;20442;-68
2023/01/03 07:14:48;;;;;;;12.80;2.37;;;;;;;5.91;96.34;102144.72;5052924;28;20478;-68
2023/01/03 07:17:15;;;;;;;6.43;1.93;;;;;;;5.94;96.29;102146.19;5053298;28;20488;-68
2023/01/03 07:19:43;;;;;;;6.93;2.13;;;;;;;5.85;96.31;102142.16;5053379;28;20688;-68
2023/01/03 07:22:10;;;;;;;5.90;1.37;;;;;;;5.85;96.26;102144.84;5053209;28;20469;-68
2023/01/03 07:24:36;;;;;;;6.23;1.80;;;;;;;5.87;96.33;102150.78;5052976;28;21003;-64
2023/01/03 07:27:03;;;;;;;8.13;1.87;;;;;;;5.87;96.51;102156.19;5056475;28;20489;-64
2023/01/03 07:29:30;;;;;;;5.53;1.90;;;;;;;5.84;96.81;102149.38;5057039;28;20452;-66
2023/01/03 07:31:57;;;;;;;6.43;2.43;;;;;;;5.82;96.73;102149.63;5057375;28;20464;-68
2023/01/03 07:34:24;;;;;;;7.03;1.73;;;;;;;5.75;97.30;102161.50;5057216;28;20446;-69
2023/01/03 07:36:52;;;;;;;4.80;1.50;;;;;;;5.77;97.11;102164.81;5057413;28;20464;-68
2023/01/03 07:39:19;;;;;;;6.27;1.90;;;;;;;5.74;97.32;102160.69;5056865;28;20529;-68
2023/01/03 07:44:29;;;;;;;5.60;1.87;;;;;;;5.75;97.13;102169.56;5056910;28;20452;-68
2023/01/03 07:46:56;;;;;;;5.77;1.87;;;;;;;5.67;97.72;102169.94;5057026;28;20462;-67
2023/01/03 07:49:22;;;;;;;5.83;1.80;;;;;;;5.72;97.52;102178.94;5057033;28;20446;-68
2023/01/03 07:51:49;;;;;;;5.73;1.90;;;;;;;5.69;97.66;102182.06;5056646;28;20993;-69
2023/01/03 07:54:17;;;;;;;5.27;1.60;;;;;;;5.72;97.26;102183.50;5056696;28;20488;-69
2023/01/03 07:56:43;;;;;;;16.37;2.83;;;;;;;5.73;97.40;102179.75;5056349;28;20565;-65
2023/01/03 07:59:10;;;;;;;9.53;2.23;;;;;;;5.75;97.61;102183.84;5056348;28;20939;-68
2023/01/03 08:01:37;;;;;;;5.70;1.80;;;;;;;5.73;97.64;102185.94;5056404;28;20438;-68
2023/01/03 08:04:03;;;;;;;6.40;2.10;;;;;;;5.71;97.60;102188.06;5056400;28;20533;-68
2023/01/03 08:06:30;;;;;;;10.37;2.27;;;;;;;5.72;97.06;102192.38;5056473;28;20517;-69
2023/01/03 08:14:26;;;;;;;7.50;1.90;;;;;;;5.68;97.77;102193.88;5056388;28;20787;-68
2023/01/03 08:16:52;;;;;;;5.50;2.20;;;;;;;5.75;97.70;102199.16;5055848;28;20492;-66
2023/01/03 08:19:19;;;;;;;12.50;1.90;;;;;;;5.78;97.68;102199.53;5056263;28;20863;-67
2023/01/03 08:21:45;;;;;;;13.13;2.30;;;;;;;5.81;97.89;102207.13;5055896;28;21018;-68
2023/01/03 08:24:12;;;;;;;5.00;1.70;;;;;;;5.83;97.58;102202.34;5056204;28;20448;-68
2023/01/03 08:26:39;;;;;;;13.87;2.23;;;;;;;5.87;97.61;102213.47;5056119;28;20490;-68
2023/01/03 08:29:06;;;;;;;6.30;2.33;;;;;;;5.88;97.68;102214.28;5056208;28;20453;-68
2023/01/03 08:31:38;;;;;;;5.67;1.80;;;;;;;5.90;97.82;102214.88;5055821;28;20446;-67
2023/01/03 08:34:08;;;;;;;5.40;1.90;;;;;;;5.96;98.05;102216.69;5056170;28;20437;-68
2023/01/03 08:36:43;;;;;;;6.13;1.73;;;;;;;5.95;97.99;102213.16;5055816;28;20492;-68
2023/01/03 08:39:15;;;;;;;5.23;1.57;;;;;;;5.99;97.81;102222.41;5055477;28;20418;-68
2023/01/03 08:41:45;;;;;;;11.00;2.20;;;;;;;6.01;98.07;102219.50;5056042;28;20812;-67
2023/01/03 08:44:14;;;;;;;13.23;1.93;;;;;;;6.07;97.14;102215.91;5055901;28;20448;-68
2023/01/03 08:46:43;;;;;;;13.70;2.33;;;;;;;6.10;97.53;102218.09;5056114;28;20463;-67
2023/01/03 08:49:11;;;;;;;7.53;1.60;;;;;;;6.15;96.82;102223.59;5055801;28;20438;-68
2023/01/03 08:51:39;;;;;;;7.20;2.13;;;;;;;6.22;96.68;102228.91;5055911;28;20812;-67
2023/01/03 08:54:05;;;;;;;7.33;2.13;;;;;;;6.21;96.92;102230.78;5055597;28;20859;-68
2023/01/03 08:56:33;;;;;;;15.50;2.57;;;;;;;6.29;96.17;102235.84;5055310;28;20513;-67
2023/01/03 08:58:59;;;;;;;8.30;2.27;;;;;;;6.30;96.05;102240.16;5055496;28;20826;-67
2023/01/03 09:01:27;;;;;;;6.00;2.07;;;;;;;6.35;96.03;102244.03;5055507;28;20442;-67
2023/01/03 09:03:54;;;;;;;5.33;1.60;;;;;;;6.37;96.36;102239.22;5055521;28;20453;-68
2023/01/03 09:06:20;;;;;;;5.90;1.73;;;;;;;6.41;95.84;102243.91;5055387;28;20545;-68
2023/01/03 09:08:47;;;;;;;6.47;2.30;;;;;;;6.44;95.67;102256.09;5055052;28;20457;-68
2023/01/03 09:11:15;;;;;;;6.60;2.40;;;;;;;6.43;95.09;102260.66;5055296;28;20533;-67
2023/01/03 09:13:41;;;;;;;10.23;2.63;;;;;;;6.49;95.29;102261.59;5055268;28;20453;-68
2023/01/03 09:16:10;;;;;;;9.63;2.53;;;;;;;6.53;94.81;102262.78;5055208;28;20486;-68
2023/01/03 09:18:39;;;;;;;5.67;2.03;;;;;;;6.56;94.94;102270.38;5054920;28;20533;-68
2023/01/03 09:21:06;;;;;;;5.63;1.70;;;;;;;6.59;94.76;102269.91;5055141;28;20438;-68
2023/01/03 09:23:34;;;;;;;5.70;1.97;;;;;;;6.67;95.23;102266.06;5054811;28;20513;-68
2023/01/03 09:26:01;;;;;;;7.03;2.43;;;;;;;6.70;94.55;102271.81;5054688;28;20462;-66
2023/01/03 09:28:28;;;;;;;5.10;1.60;;;;;;;6.79;94.04;102277.66;5054382;28;21018;-67
2023/01/03 09:30:54;;;;;;;12.13;2.40;;;;;;;6.86;93.31;102288.31;5054673;28;20445;-67
2023/01/03 09:33:21;;;;;;;13.33;2.63;;;;;;;6.84;93.83;102285.84;5054491;28;20499;-68
2023/01/03 09:35:52;;;;;;;7.43;2.00;;;;;;;6.95;93.27;102276.13;5054428;28;20488;-67
2023/01/03 09:38:19;;;;;;;5.70;2.00;;;;;;;6.95;92.35;102270.72;5054516;28;20434;-67
2023/01/03 09:40:47;;;;;;;8.00;3.00;;;;;;;6.98;91.84;102268.41;5054465;28;20500;-67
2023/01/03 09:43:16;;;;;;;7.00;2.30;;;;;;;7.00;91.78;102265.50;5054135;28;20447;-68
2023/01/03 09:45:46;;;;;;;4.70;1.67;;;;;;;7.00;91.62;102273.56;5054224;28;20553;-70
2023/01/03 09:48:15;;;;;;;10.53;2.67;;;;;;;7.07;91.07;102276.94;5054491;28;20541;-65
2023/01/03 09:50:44;;;;;;;6.87;2.13;;;;;;;7.14;91.06;102277.66;5053317;28;20445;-64
2023/01/03 10:04:51;;;;;;;7.63;2.53;;;;;;;7.30;89.31;102292.25;5053763;28;20441;-67
2023/01/03 10:07:30;;;;;;;7.20;2.50;;;;;;;7.41;88.09;102287.94;5054013;28;20429;-67
2023/01/03 10:10:06;;;;;;;6.40;2.20;;;;;;;7.42;88.00;102282.28;5053764;28;20427;-67
2023/01/03 10:12:44;;;;;;;7.40;2.37;;;;;;;7.42;88.54;102281.47;5053989;28;20517;-67
2023/01/03 10:15:22;;;;;;;5.40;1.77;;;;;;;7.53;88.11;102288.72;5053773;28;20458;-68
2023/01/03 10:18:02;;;;;;;7.40;2.23;;;;;;;7.62;88.28;102276.50;5053614;28;20433;-68
2023/01/03 10:20:42;;;;;;;6.33;2.20;;;;;;;7.75;86.91;102287.00;5053780;28;20517;-68
2023/01/03 10:23:10;;;;;;;6.10;1.70;;;;;;;7.76;86.45;102285.13;5053814;28;20426;-66
2023/01/03 10:25:41;;;;;;;9.20;1.93;;;;;;;7.68;86.44;102289.03;5053730;28;20458;-67
2023/01/03 10:28:15;;;;;;;6.80;1.87;;;;;;;7.74;87.22;102287.22;5053311;28;20446;-68
2023/01/03 10:31:05;;;;;;;6.50;2.40;;;;;;;7.82;86.32;102298.47;5053832;28;20800;-67
2023/01/03 10:33:33;;;;;;;9.20;2.47;;;;;;;7.83;85.81;102281.25;5053687;28;20499;-68
2023/01/03 10:36:00;;;;;;;7.33;2.53;;;;;;;7.77;86.33;102279.50;5053423;28;20526;-67
2023/01/03 10:38:28;;;;;;;6.57;2.80;;;;;;;7.72;87.01;102281.28;5053332;28;20446;-67
2023/01/03 10:40:58;;;;;;;5.40;2.03;;;;;;;7.72;87.25;102286.66;5053327;28;20435;-67
2023/01/03 10:43:31;;;;;;;7.30;2.53;;;;;;;7.70;88.00;102281.53;5053468;28;20433;-67
2023/01/03 10:46:00;;;;;;;5.80;2.20;;;;;;;7.74;86.69;102287.22;5053276;28;20545;-67
2023/01/03 10:48:35;;;;;;;8.03;3.07;;;;;;;7.61;87.18;102288.31;5053140;28;20472;-68
2023/01/03 10:51:05;;;;;;;10.73;3.40;;;;;;;7.60;86.73;102297.47;5074992;22;20504;-66
2023/01/03 10:53:38;;;;;;;6.70;2.23;;;;;;;7.53;87.21;102296.81;5033517;28;20446;-66
2023/01/03 10:56:07;;;;;;;9.03;3.20;;;;;;;7.58;87.50;102288.81;5033398;28;20474;-66
2023/01/03 10:58:34;;;;;;;8.43;3.17;;;;;;;7.67;86.85;102298.19;5033224;28;20479;-66
2023/01/03 11:01:18;;;;;;;6.60;2.77;;;;;;;7.64;88.20;102303.22;5032985;28;20550;-66
2023/01/03 11:03:45;;;;;;;8.10;2.70;;;;;;;7.68;88.36;102296.28;5033202;28;20408;-66
2023/01/03 11:06:15;;;;;;;16.30;3.00;;;;;;;7.74;88.01;102298.03;5033298;28;20439;-66
2023/01/03 11:08:44;;;;;;;8.37;3.10;;;;;;;7.77;87.79;102298.38;5033302;28;20492;-66
2023/01/03 11:11:32;;;;;;;13.97;3.63;;;;;;;7.78;87.57;102299.19;5033259;28;20533;-66
2023/01/03 11:14:11;;;;;;;6.67;2.53;;;;;;;7.80;87.03;102291.69;5033037;28;20423;-66
2023/01/03 11:16:38;;;;;;;6.60;2.57;;;;;;;7.82;86.92;102286.84;5033258;28;20485;-66
2023/01/03 11:19:06;;;;;;;9.30;2.80;;;;;;;7.81;87.79;102294.13;5033192;28;20449;-66
2023/01/03 11:21:42;;;;;;;7.40;2.70;;;;;;;7.87;87.29;102286.13;5032879;28;20458;-66
2023/01/03 11:24:23;;;;;;;6.80;2.50;;;;;;;7.86;86.69;102289.91;5033260;28;20437;-66
2023/01/03 11:27:01;;;;;;;7.73;2.40;;;;;;;7.85;87.04;102294.47;5033248;28;20419;-66
2023/01/03 11:29:52;;;;;;;7.90;2.30;;;;;;;7.71;87.45;102280.47;5032888;28;20917;-66
2023/01/03 11:32:33;;;;;;;7.10;2.20;;;;;;;7.73;87.38;102281.03;5032769;28;20458;-66
2023/01/03 11:35:25;;;;;;;13.73;2.30;;;;;;;7.80;87.09;102283.59;5033150;28;20437;-66
2023/01/03 11:38:01;;;;;;;7.00;2.00;;;;;;;7.87;86.83;102286.13;5033056;28;20467;-66
2023/01/03 11:40:37;;;;;;;7.80;2.60;;;;;;;7.88;85.74;102282.38;5032717;28;20422;-66
2023/01/03 11:43:22;;;;;;;7.50;2.57;;;;;;;7.84;85.19;102282.88;5032980;28;20967;-67
2023/01/03 11:46:10;;;;;;;6.77;2.20;;;;;;;7.93;85.36;102280.63;5032754;28;20434;-66
2023/01/03 11:48:58;;;;;;;5.67;2.17;;;;;;;7.87;85.24;102270.75;5033095;28;20463;-66
2023/01/03 11:51:32;;;;;;;9.23;2.77;;;;;;;7.67;84.61;102268.50;5032436;28;20996;-67
2023/01/03 11:54:04;;;;;;;5.73;1.70;;;;;;;8.16;84.46;102278.84;5032957;28;20442;-66
2023/01/03 11:56:35;;;;;;;6.40;2.43;;;;;;;9.15;77.12;102276.38;5032623;28;20975;-66
2023/01/03 11:59:39;;;;;;;8.73;2.87;;;;;;;9.74;72.95;102284.72;5032717;28;20431;-66
2023/01/03 12:02:52;;;;;;;8.90;2.67;;;;;;;10.74;69.11;102277.00;5033115;28;20467;-66
2023/01/03 12:05:40;;;;;;;8.90;1.90;;;;;;;10.43;65.42;102275.94;5017738;28;20457;-66
2023/01/03 12:08:27;;;;;;;5.60;1.43;;;;;;;9.98;66.87;102270.88;5032680;28;20786;-67
2023/01/03 12:11:01;;;;;;;4.73;1.27;;;;;;;9.37;69.14;102270.19;5032453;28;20432;-66
2023/01/03 12:13:37;;;;;;;5.40;1.53;;;;;;;9.10;71.78;102274.44;5034898;28;20465;-66
2023/01/03 12:16:10;;;;;;;5.90;1.40;;;;;;;8.89;71.74;102279.78;5036124;28;20433;-66
2023/01/03 12:18:44;;;;;;;5.97;1.37;;;;;;;8.54;73.31;102279.00;5036369;28;20419;-67
2023/01/03 12:21:16;;;;;;;19.13;2.10;;;;;;;8.39;74.44;102288.72;5036327;28;20554;-68
2023/01/03 12:23:46;;;;;;;5.80;1.83;;;;;;;8.29;74.89;102283.94;5036289;28;20427;-68
2023/01/03 12:26:15;;;;;;;6.20;1.30;;;;;;;8.32;75.34;102280.75;5035902;28;20477;-66
2023/01/03 12:28:47;;;;;;;5.60;1.47;;;;;;;8.31;76.29;102274.53;5036225;28;20439;-66
2023/01/03 12:31:23;;;;;;;5.73;1.73;;;;;;;8.50;74.99;102285.97;5036053;28;20477;-66
2023/01/03 12:33:59;;;;;;;9.00;1.50;;;;;;;8.53;74.20;102284.66;5036142;28;20853;-66
2023/01/03 12:36:36;;;;;;;5.07;1.47;;;;;;;8.57;74.95;102269.59;5035599;28;20557;-67
2023/01/03 12:39:29;;;;;;;4.77;1.17;;;;;;;8.65;75.23;102271.88;5035968;28;20466;-66
2023/01/03 12:42:01;;;;;;;4.90;1.50;;;;;;;8.80;73.95;102271.28;5035885;28;20459;-66
2023/01/03 12:44:33;;;;;;;6.00;1.30;;;;;;;8.87;74.73;102263.84;5035492;28;20431;-67
2023/01/03 12:47:02;;;;;;;6.00;1.70;;;;;;;8.94;74.87;102269.91;5035789;28;20510;-65
2023/01/03 12:49:35;;;;;;;5.10;1.50;;;;;;;8.79;75.01;102267.78;5035413;28;21012;-66